createdAt,value
2022-11-29T00:01:08.767Z,35.60
2022-11-29T00:03:37.411Z,35.00
2022-11-29T00:06:06.426Z,41.20
2022-11-29T00:08:34.303Z,44.03
2022-11-29T00:11:05.441Z,36.30
2022-11-29T00:13:33.131Z,38.17
2022-11-29T00:16:04.552Z,36.63
2022-11-29T00:18:33.624Z,36.10
2022-11-29T00:21:01.286Z,39.90
2022-11-29T00:23:28.935Z,42.53
2022-11-29T00:25:56.547Z,38.07
2022-11-29T00:28:24.106Z,37.30
2022-11-29T00:30:51.836Z,32.90
2022-11-29T00:33:19.417Z,38.10
2022-11-29T00:35:48.321Z,38.80
2022-11-29T00:38:15.993Z,48.50
2022-11-29T00:40:43.659Z,43.30
2022-11-29T00:43:11.331Z,41.70
2022-11-29T00:45:38.924Z,52.00
2022-11-29T00:48:06.855Z,36.80
2022-11-29T00:50:34.448Z,38.87
2022-11-29T00:53:03.351Z,42.93
2022-11-29T00:55:30.931Z,41.97
2022-11-29T00:57:58.490Z,40.37
2022-11-29T01:00:26.064Z,38.17
2022-11-29T01:02:53.649Z,43.87
2022-11-29T01:05:21.260Z,43.50
2022-11-29T01:07:48.967Z,37.00
2022-11-29T01:10:18.029Z,35.80
2022-11-29T01:12:45.690Z,40.00
2022-11-29T01:15:13.846Z,40.10
2022-11-29T01:17:41.693Z,42.50
2022-11-29T01:20:13.829Z,45.47
2022-11-29T01:22:41.456Z,41.87
2022-11-29T01:25:11.301Z,43.73
2022-11-29T01:27:40.486Z,39.27
2022-11-29T01:30:09.557Z,40.07
2022-11-29T01:32:37.687Z,43.20
2022-11-29T01:35:06.580Z,39.90
2022-11-29T01:37:34.325Z,39.27
2022-11-29T01:40:01.949Z,42.07
2022-11-29T01:42:29.531Z,46.87
2022-11-29T01:45:20.959Z,50.03
2022-11-29T01:47:50.313Z,47.33
2022-11-29T01:50:17.940Z,40.43
2022-11-29T01:52:46.045Z,47.40
2022-11-29T01:55:14.017Z,49.63
2022-11-29T01:57:42.713Z,50.70
2022-11-29T02:00:14.661Z,45.40
2022-11-29T02:02:44.371Z,43.00
2022-11-29T02:05:13.712Z,42.33
2022-11-29T02:07:42.043Z,40.20
2022-11-29T02:10:10.622Z,44.10
2022-11-29T02:12:43.827Z,43.40
2022-11-29T02:15:22.336Z,45.27
2022-11-29T02:17:59.414Z,45.70
2022-11-29T02:20:50.798Z,47.97
2022-11-29T02:23:36.771Z,48.40
2022-11-29T02:26:15.598Z,48.97
2022-11-29T02:28:53.823Z,44.40
2022-11-29T02:31:58.946Z,47.97
2022-11-29T02:35:01.134Z,46.20
2022-11-29T02:37:42.507Z,44.53
2022-11-29T02:40:22.866Z,49.37
2022-11-29T02:43:07.970Z,45.50
2022-11-29T02:45:45.200Z,46.90
2022-11-29T02:48:27.952Z,46.33
2022-11-29T02:51:00.648Z,56.30
2022-11-29T02:53:33.520Z,45.83
2022-11-29T02:56:12.250Z,51.30
2022-11-29T02:58:46.624Z,45.37
2022-11-29T03:01:19.638Z,50.67
2022-11-29T03:03:52.562Z,57.93
2022-11-29T03:06:28.493Z,58.83
2022-11-29T03:09:02.304Z,48.93
2022-11-29T03:11:35.729Z,49.00
2022-11-29T03:14:15.028Z,52.10
2022-11-29T03:16:47.815Z,51.50
2022-11-29T03:19:30.641Z,56.40
2022-11-29T03:22:10.049Z,51.10
2022-11-29T03:24:43.967Z,55.43
2022-11-29T03:27:14.345Z,52.83
2022-11-29T03:29:48.797Z,52.87
2022-11-29T03:32:21.281Z,52.87
2022-11-29T03:34:57.637Z,47.30
2022-11-29T03:37:29.682Z,52.97
2022-11-29T03:40:00.371Z,55.20
2022-11-29T03:42:31.724Z,58.40
2022-11-29T03:45:04.796Z,54.50
2022-11-29T03:47:36.394Z,52.40
2022-11-29T03:50:09.240Z,52.73
2022-11-29T03:52:44.588Z,50.73
2022-11-29T03:55:25.236Z,51.23
2022-11-29T03:58:06.804Z,53.13
2022-11-29T04:00:44.054Z,50.03
2022-11-29T04:03:34.028Z,50.53
2022-11-29T04:06:23.046Z,49.37
2022-11-29T04:09:14.453Z,53.77
2022-11-29T04:12:08.111Z,55.77
2022-11-29T04:14:52.277Z,48.27
2022-11-29T04:17:42.530Z,59.83
2022-11-29T04:20:37.836Z,52.33
2022-11-29T04:23:25.618Z,47.77
2022-11-29T04:26:04.840Z,50.50
2022-11-29T04:28:52.217Z,51.83
2022-11-29T04:31:29.684Z,52.67
2022-11-29T04:34:22.422Z,50.90
2022-11-29T04:37:02.696Z,54.33
2022-11-29T04:39:42.635Z,56.90
2022-11-29T04:42:25.667Z,51.03
2022-11-29T04:45:32.358Z,55.80
2022-11-29T04:48:10.252Z,58.20
2022-11-29T04:50:48.574Z,53.17
2022-11-29T04:53:31.089Z,55.10
2022-11-29T04:56:07.671Z,51.23
2022-11-29T04:58:40.798Z,54.47
2022-11-29T05:01:18.838Z,57.57
2022-11-29T05:03:56.687Z,45.10
2022-11-29T05:06:29.785Z,52.93
2022-11-29T05:09:03.292Z,55.60
2022-11-29T05:11:39.195Z,50.80
2022-11-29T05:14:13.831Z,54.00
2022-11-29T05:16:50.156Z,50.53
2022-11-29T05:19:30.554Z,53.17
2022-11-29T05:22:06.036Z,51.47
2022-11-29T05:24:46.512Z,57.70
2022-11-29T05:27:17.961Z,58.13
2022-11-29T05:29:53.777Z,57.00
2022-11-29T05:32:28.497Z,57.67
2022-11-29T05:35:25.017Z,55.17
2022-11-29T05:37:54.920Z,53.83
2022-11-29T05:40:39.636Z,54.23
2022-11-29T05:43:16.640Z,51.63
2022-11-29T05:45:50.211Z,56.87
2022-11-29T05:48:23.453Z,62.03
2022-11-29T05:50:59.359Z,52.23
2022-11-29T05:53:31.298Z,57.60
2022-11-29T05:56:04.240Z,56.53
2022-11-29T05:58:46.824Z,58.40
2022-11-29T06:01:22.673Z,54.00
2022-11-29T06:04:01.414Z,57.93
2022-11-29T06:06:42.915Z,52.03
2022-11-29T06:09:16.278Z,64.87
2022-11-29T06:11:51.635Z,57.50
2022-11-29T06:14:38.672Z,58.60
2022-11-29T06:17:42.713Z,58.63
2022-11-29T06:20:27.671Z,59.27
2022-11-29T06:23:17.098Z,58.93
2022-11-29T06:26:04.461Z,56.57
2022-11-29T06:28:45.797Z,52.63
2022-11-29T06:31:20.351Z,53.47
2022-11-29T06:34:06.128Z,58.90
2022-11-29T06:36:41.327Z,62.77
2022-11-29T06:39:10.718Z,61.23
2022-11-29T06:41:52.211Z,65.83
2022-11-29T06:44:23.139Z,56.90
2022-11-29T06:46:59.150Z,57.27
2022-11-29T06:49:34.100Z,56.17
2022-11-29T06:52:20.241Z,62.60
2022-11-29T06:55:11.667Z,51.30
2022-11-29T06:57:51.989Z,64.53
2022-11-29T07:00:29.396Z,57.53
2022-11-29T07:03:19.686Z,56.87
2022-11-29T07:06:05.669Z,56.37
2022-11-29T07:08:34.478Z,55.10
2022-11-29T07:11:07.305Z,64.63
2022-11-29T07:13:38.134Z,64.67
2022-11-29T07:16:18.173Z,53.50
2022-11-29T07:18:52.428Z,55.50
2022-11-29T07:21:26.479Z,56.00
2022-11-29T07:24:02.953Z,54.87
2022-11-29T07:26:43.121Z,58.27
2022-11-29T07:29:24.509Z,59.73
2022-11-29T07:32:01.685Z,55.53
2022-11-29T07:34:37.876Z,60.20
2022-11-29T07:37:20.325Z,57.77
2022-11-29T07:39:56.235Z,59.10
2022-11-29T07:42:35.843Z,59.40
2022-11-29T07:45:21.045Z,59.33
2022-11-29T07:47:51.778Z,58.70
2022-11-29T07:50:22.185Z,60.50
2022-11-29T07:52:57.341Z,63.20
2022-11-29T07:55:28.563Z,58.50
2022-11-29T07:58:00.128Z,59.83
2022-11-29T08:00:28.654Z,53.20
2022-11-29T08:02:59.807Z,55.50
2022-11-29T08:05:29.951Z,54.60
2022-11-29T08:08:01.494Z,65.47
2022-11-29T08:10:39.852Z,68.60
2022-11-29T08:13:07.839Z,54.00
2022-11-29T08:15:53.951Z,53.93
2022-11-29T08:18:21.973Z,49.43
2022-11-29T08:20:52.308Z,55.97
2022-11-29T08:23:24.118Z,58.20
2022-11-29T08:25:52.322Z,58.97
2022-11-29T08:28:23.992Z,52.33
2022-11-29T08:31:01.809Z,58.33
2022-11-29T08:33:33.419Z,52.47
2022-11-29T08:36:15.164Z,57.30
2022-11-29T08:38:49.423Z,53.57
2022-11-29T08:41:21.695Z,56.30
2022-11-29T08:43:52.857Z,53.13
2022-11-29T08:46:20.942Z,57.03
2022-11-29T08:48:51.539Z,50.50
2022-11-29T08:51:21.828Z,58.47
2022-11-29T08:54:18.189Z,57.73
2022-11-29T08:59:40.369Z,57.80
2022-11-29T09:02:11.158Z,54.80
2022-11-29T09:04:38.876Z,55.93
2022-11-29T09:07:06.383Z,55.90
2022-11-29T09:09:35.975Z,51.67
2022-11-29T09:14:51.793Z,52.23
2022-11-29T09:17:19.276Z,52.23
2022-11-29T09:19:47.290Z,53.97
2022-11-29T09:25:07.355Z,60.03
2022-11-29T09:27:54.911Z,54.73
2022-11-29T09:30:27.508Z,55.73
2022-11-29T09:32:55.067Z,57.57
2022-11-29T09:38:08.285Z,53.57
2022-11-29T09:44:02.506Z,54.73
2022-11-29T09:46:38.336Z,72.97
2022-11-29T09:49:21.922Z,53.67
2022-11-29T09:52:07.058Z,54.93
2022-11-29T09:54:47.526Z,62.37
2022-11-29T09:57:43.371Z,57.43
2022-11-29T10:00:20.278Z,58.80
2022-11-29T10:03:00.086Z,55.50
2022-11-29T10:05:35.109Z,58.13
2022-11-29T10:08:05.077Z,52.23
2022-11-29T10:10:50.199Z,53.97
2022-11-29T10:13:26.324Z,55.93
2022-11-29T10:16:25.511Z,67.57
2022-11-29T10:19:00.932Z,51.00
2022-11-29T10:21:36.674Z,55.83
2022-11-29T10:24:08.531Z,56.73
2022-11-29T10:26:36.550Z,56.30
2022-11-29T10:29:06.298Z,59.87
2022-11-29T10:31:37.386Z,51.20
2022-11-29T10:34:25.686Z,55.83
2022-11-29T10:37:33.494Z,49.00
2022-11-29T10:40:25.685Z,53.53
2022-11-29T10:43:02.388Z,57.17
2022-11-29T10:45:35.505Z,50.80
2022-11-29T10:48:35.661Z,52.03
2022-11-29T10:51:10.395Z,50.70
2022-11-29T10:56:40.568Z,53.40
2022-11-29T10:59:25.476Z,48.27
2022-11-29T11:01:59.156Z,56.97
2022-11-29T11:04:35.025Z,55.57
2022-11-29T11:07:09.764Z,52.90
2022-11-29T11:09:39.239Z,58.53
2022-11-29T11:12:17.438Z,57.20
2022-11-29T11:14:51.464Z,50.87
2022-11-29T11:17:26.357Z,55.63
2022-11-29T11:20:17.997Z,52.00
2022-11-29T11:23:43.912Z,57.17
2022-11-29T11:27:06.575Z,50.27
2022-11-29T11:29:43.591Z,59.63
2022-11-29T11:35:28.993Z,56.70
2022-11-29T11:37:57.580Z,58.33
2022-11-29T11:40:29.844Z,52.93
2022-11-29T11:43:18.361Z,58.20
2022-11-29T11:45:53.752Z,54.47
2022-11-29T12:03:45.549Z,57.97
2022-11-29T12:06:33.178Z,57.63
2022-11-29T12:09:09.901Z,60.10
2022-11-29T12:11:43.285Z,56.90
2022-11-29T12:14:30.403Z,60.90
2022-11-29T12:17:35.447Z,63.50
2022-11-29T12:20:22.444Z,60.50
2022-11-29T12:23:20.454Z,57.00
2022-11-29T12:26:49.057Z,66.17
2022-11-29T12:29:57.256Z,65.20
2022-11-29T12:39:58.010Z,61.10
2022-11-29T12:42:49.747Z,65.23
2022-11-29T12:45:39.242Z,57.87
2022-11-29T12:48:25.057Z,62.03
2022-11-29T12:51:05.365Z,72.63
2022-11-29T12:54:01.847Z,68.87
2022-11-29T12:57:21.676Z,58.53
2022-11-29T13:00:15.477Z,57.47
2022-11-29T13:24:16.160Z,60.77
2022-11-29T13:46:39.201Z,68.43
2022-11-29T13:49:36.058Z,65.50
2022-11-29T13:53:17.623Z,66.97
2022-11-29T13:55:49.035Z,70.80
2022-11-29T13:58:57.315Z,60.27
2022-11-29T14:01:27.189Z,72.80
2022-11-29T14:04:08.019Z,69.87
2022-11-29T14:07:21.462Z,64.63
2022-11-29T14:09:52.195Z,60.27
2022-11-29T14:12:37.039Z,67.83
2022-11-29T14:15:16.515Z,61.90
2022-11-29T14:17:57.787Z,65.13
2022-11-29T14:20:48.864Z,69.33
2022-11-29T14:23:31.338Z,68.93
2022-11-29T14:26:28.288Z,72.03
2022-11-29T14:28:56.403Z,62.90
2022-11-29T14:31:52.855Z,75.00
2022-11-29T14:34:35.941Z,70.13
2022-11-29T14:37:09.921Z,70.37
2022-11-29T14:39:43.814Z,68.10
2022-11-29T14:42:17.023Z,69.80
2022-11-29T14:44:47.329Z,67.83
2022-11-29T14:47:21.632Z,68.10
2022-11-29T14:49:49.345Z,67.60
2022-11-29T14:52:25.619Z,75.90
2022-11-29T14:54:58.066Z,78.90
2022-11-29T14:58:06.108Z,66.60
2022-11-29T15:00:42.871Z,67.83
2022-11-29T15:03:12.881Z,76.53
2022-11-29T15:05:43.797Z,78.47
2022-11-29T15:08:16.175Z,82.60
2022-11-29T15:10:49.287Z,70.77
2022-11-29T15:13:21.084Z,74.63
2022-11-29T15:16:08.650Z,78.37
2022-11-29T15:18:57.869Z,70.53
2022-11-29T15:21:32.829Z,69.17
2022-11-29T15:24:03.724Z,76.70
2022-11-29T15:26:32.708Z,72.43
2022-11-29T15:29:14.348Z,67.10
2022-11-29T15:31:43.021Z,73.17
2022-11-29T15:34:20.146Z,73.10
2022-11-29T15:36:47.776Z,75.13
2022-11-29T15:39:26.877Z,71.70
2022-11-29T15:42:00.385Z,62.50
2022-11-29T15:44:28.042Z,69.20
2022-11-29T15:46:55.649Z,70.27
2022-11-29T15:49:25.322Z,76.13
2022-11-29T15:51:56.660Z,71.10
2022-11-29T15:54:28.519Z,68.47
2022-11-29T15:57:00.585Z,68.60
2022-11-29T15:59:33.167Z,69.60
2022-11-29T16:02:03.796Z,76.13
2022-11-29T16:04:32.298Z,76.43
2022-11-29T16:06:59.938Z,69.03
2022-11-29T16:09:32.599Z,70.63
2022-11-29T16:12:02.684Z,59.77
2022-11-29T16:14:30.415Z,68.80
2022-11-29T16:17:00.456Z,70.93
2022-11-29T16:19:32.803Z,70.03
2022-11-29T16:22:10.300Z,69.57
2022-11-29T16:24:39.127Z,71.43
2022-11-29T16:27:08.760Z,70.23
2022-11-29T16:29:38.834Z,75.83
2022-11-29T16:32:15.064Z,63.23
2022-11-29T16:34:44.071Z,69.77
2022-11-29T16:37:17.766Z,73.67
2022-11-29T16:39:47.556Z,73.60
2022-11-29T16:42:25.045Z,68.80
2022-11-29T16:45:31.584Z,65.50
2022-11-29T16:47:59.642Z,64.50
2022-11-29T16:50:28.374Z,69.20
2022-11-29T16:52:56.990Z,73.90
2022-11-29T16:55:25.393Z,65.87
2022-11-29T16:57:54.499Z,66.53
2022-11-29T17:00:33.247Z,70.87
2022-11-29T17:03:01.680Z,70.43
2022-11-29T17:05:29.390Z,66.50
2022-11-29T17:07:57.360Z,74.47
2022-11-29T17:10:26.128Z,69.20
2022-11-29T17:12:55.133Z,69.97
2022-11-29T17:15:22.764Z,66.90
2022-11-29T17:17:50.509Z,71.63
2022-11-29T17:20:18.487Z,65.90
2022-11-29T17:22:46.130Z,76.90
2022-11-29T17:25:13.789Z,74.17
2022-11-29T17:27:41.431Z,66.10
2022-11-29T17:30:12.223Z,70.53
2022-11-29T17:32:39.914Z,77.03
2022-11-29T17:35:08.163Z,77.70
2022-11-29T17:37:36.021Z,78.57
2022-11-29T17:40:03.693Z,78.10
2022-11-29T17:42:31.394Z,77.20
2022-11-29T17:44:59.269Z,81.90
2022-11-29T17:47:28.448Z,87.60
2022-11-29T17:49:56.522Z,75.40
2022-11-29T17:52:24.393Z,73.50
2022-11-29T17:54:52.094Z,71.53
2022-11-29T17:57:19.951Z,71.60
2022-11-29T17:59:48.004Z,81.47
2022-11-29T18:02:16.115Z,74.10
2022-11-29T18:04:45.428Z,75.33
2022-11-29T18:07:15.921Z,78.13
2022-11-29T18:09:44.195Z,82.10
2022-11-29T18:12:12.165Z,82.60
2022-11-29T18:14:41.332Z,89.87
2022-11-29T18:17:09.429Z,83.13
2022-11-29T18:19:37.266Z,89.73
2022-11-29T18:22:06.497Z,88.63
2022-11-29T18:24:34.332Z,68.87
2022-11-29T18:27:02.178Z,73.57
2022-11-29T18:29:35.937Z,92.40
2022-11-29T18:32:06.260Z,77.47
2022-11-29T18:34:34.148Z,88.07
2022-11-29T18:37:01.930Z,73.03
2022-11-29T18:39:30.977Z,81.07
2022-11-29T18:41:58.861Z,79.83
2022-11-29T18:44:29.462Z,92.03
2022-11-29T18:46:57.711Z,90.80
2022-11-29T18:49:25.652Z,95.97
2022-11-29T18:51:53.623Z,90.43
2022-11-29T18:54:21.476Z,92.33
2022-11-29T18:56:51.306Z,95.43
2022-11-29T18:59:19.073Z,89.87
2022-11-29T19:01:48.768Z,85.03
2022-11-29T19:04:18.186Z,86.70
2022-11-29T19:06:46.074Z,79.30
2022-11-29T19:09:15.708Z,90.37
2022-11-29T19:11:43.743Z,79.80
2022-11-29T19:14:14.039Z,87.10
2022-11-29T19:16:43.479Z,93.47
2022-11-29T19:19:11.702Z,83.23
2022-11-29T19:21:40.501Z,84.13
2022-11-29T19:24:13.855Z,80.43
2022-11-29T19:26:44.116Z,75.73
2022-11-29T19:29:14.420Z,96.90
2022-11-29T19:31:43.542Z,92.63
2022-11-29T19:34:13.235Z,95.10
2022-11-29T19:36:44.950Z,91.00
2022-11-29T19:39:14.910Z,105.20
2022-11-29T19:41:44.024Z,93.33
2022-11-29T19:44:13.467Z,99.70
2022-11-29T19:46:43.169Z,92.30
2022-11-29T19:49:12.325Z,99.33
2022-11-29T19:51:40.382Z,95.03
2022-11-29T19:54:09.587Z,86.03
2022-11-29T19:56:39.050Z,90.97
2022-11-29T19:59:08.274Z,86.40
2022-11-29T20:01:42.093Z,98.37
2022-11-29T20:04:13.262Z,84.93
2022-11-29T20:06:43.220Z,97.57
2022-11-29T20:09:12.035Z,103.47
2022-11-29T20:11:39.839Z,98.40
2022-11-29T20:14:09.454Z,99.40
2022-11-29T20:16:40.115Z,101.13
2022-11-29T20:19:11.595Z,94.57
2022-11-29T20:21:42.857Z,100.97
2022-11-29T20:24:11.770Z,96.37
2022-11-29T20:26:41.976Z,90.33
2022-11-29T20:29:10.253Z,97.33
2022-11-29T20:31:44.391Z,92.23
2022-11-29T20:34:15.728Z,99.57
2022-11-29T20:36:55.873Z,93.63
2022-11-29T20:39:32.469Z,94.77
2022-11-29T20:42:25.459Z,91.97
2022-11-29T20:44:54.632Z,85.90
2022-11-29T20:47:25.209Z,96.30
2022-11-29T20:49:54.066Z,86.53
2022-11-29T20:52:33.857Z,100.43
2022-11-29T20:55:01.696Z,107.17
2022-11-29T20:57:29.381Z,104.70
2022-11-29T20:59:57.047Z,100.23
2022-11-29T21:02:25.986Z,87.30
2022-11-29T21:04:53.648Z,95.80
2022-11-29T21:07:21.337Z,96.83
2022-11-29T21:09:49.020Z,91.30
2022-11-29T21:12:17.300Z,94.40
2022-11-29T21:14:45.779Z,86.83
2022-11-29T21:17:14.353Z,94.93
2022-11-29T21:19:44.113Z,105.43
2022-11-29T21:22:15.468Z,100.63
2022-11-29T21:24:49.423Z,88.17
2022-11-29T21:27:20.825Z,94.17
2022-11-29T21:29:48.988Z,88.90
2022-11-29T21:32:21.409Z,98.57
2022-11-29T21:34:50.720Z,88.40
2022-11-29T21:37:21.078Z,108.97
2022-11-29T21:39:50.972Z,93.93
2022-11-29T21:42:18.976Z,94.50
2022-11-29T21:44:46.910Z,92.87
2022-11-29T21:47:14.769Z,93.20
2022-11-29T21:49:42.346Z,95.63
2022-11-29T21:52:11.209Z,99.23
2022-11-29T21:54:38.977Z,93.00
2022-11-29T21:57:06.598Z,97.57
2022-11-29T21:59:34.159Z,87.37
2022-11-29T22:02:02.245Z,93.03
2022-11-29T22:04:30.011Z,97.10
2022-11-29T22:06:57.611Z,102.77
2022-11-29T22:09:26.649Z,88.43
2022-11-29T22:11:54.345Z,107.47
2022-11-29T22:14:22.001Z,96.07
2022-11-29T22:16:50.786Z,94.93
2022-11-29T22:19:19.605Z,96.07
2022-11-29T22:21:48.709Z,93.87
2022-11-29T22:24:18.498Z,93.87
2022-11-29T22:26:47.937Z,100.37
2022-11-29T22:29:16.183Z,95.03
2022-11-29T22:31:44.727Z,87.20
2022-11-29T22:34:12.691Z,96.30
2022-11-29T22:36:41.058Z,98.47
2022-11-29T22:39:09.731Z,102.50
2022-11-29T22:41:38.409Z,94.80
2022-11-29T22:44:07.775Z,91.77
2022-11-29T22:46:40.267Z,96.33
2022-11-29T22:49:08.130Z,96.20
2022-11-29T22:51:37.521Z,89.77
2022-11-29T22:54:07.071Z,97.83
2022-11-29T22:56:36.449Z,101.13
2022-11-29T22:59:04.620Z,85.47
2022-11-29T23:01:35.298Z,95.70
2022-11-29T23:04:05.998Z,94.13
2022-11-29T23:06:36.194Z,85.17
2022-11-29T23:09:06.811Z,96.17
2022-11-29T23:11:34.485Z,106.37
2022-11-29T23:14:02.123Z,94.33
2022-11-29T23:16:31.366Z,106.63
2022-11-29T23:19:01.474Z,94.87
2022-11-29T23:21:30.544Z,104.23
2022-11-29T23:23:59.873Z,91.17
2022-11-29T23:26:29.215Z,85.50
2022-11-29T23:28:57.468Z,83.70
2022-11-29T23:31:25.843Z,91.50
2022-11-29T23:33:53.611Z,87.07
2022-11-29T23:36:22.652Z,89.30
2022-11-29T23:38:50.353Z,86.80
2022-11-29T23:41:18.354Z,89.93
2022-11-29T23:43:45.983Z,91.90
2022-11-29T23:46:15.783Z,88.23
2022-11-29T23:48:44.009Z,93.10
2022-11-29T23:51:12.018Z,99.67
2022-11-29T23:53:41.552Z,87.93
2022-11-29T23:56:12.852Z,79.70
2022-11-29T23:58:40.736Z,98.90
